sensor_id;sensor_type;location;lat;lon;timestamp;P1;durP1;ratioP1;P2;durP2;ratioP2
45208;SDS011;30951;43.994;26.260;2023-08-08T00:00:02;2.92;;;1.30;;
45208;SDS011;30951;43.994;26.260;2023-08-08T00:02:28;4.80;;;1.80;;
45208;SDS011;30951;43.994;26.260;2023-08-08T00:04:53;1.92;;;1.42;;
45208;SDS011;30951;43.994;26.260;2023-08-08T00:07:19;1.42;;;1.33;;
45208;SDS011;30951;43.994;26.260;2023-08-08T00:09:45;2.35;;;1.83;;
45208;SDS011;30951;43.994;26.260;2023-08-08T00:12:10;6.50;;;1.63;;
45208;SDS011;30951;43.994;26.260;2023-08-08T00:14:36;1.85;;;1.48;;
45208;SDS011;30951;43.994;26.260;2023-08-08T00:17:01;4.10;;;1.88;;
45208;SDS011;30951;43.994;26.260;2023-08-08T00:19:27;2.30;;;1.98;;
45208;SDS011;30951;43.994;26.260;2023-08-08T00:21:53;2.38;;;1.90;;
45208;SDS011;30951;43.994;26.260;2023-08-08T00:24:18;2.22;;;1.67;;
45208;SDS011;30951;43.994;26.260;2023-08-08T00:26:44;3.00;;;2.10;;
45208;SDS011;30951;43.994;26.260;2023-08-08T00:29:09;2.40;;;2.13;;
45208;SDS011;30951;43.994;26.260;2023-08-08T00:31:34;1.98;;;1.88;;
45208;SDS011;30951;43.994;26.260;2023-08-08T00:34:00;2.00;;;1.88;;
45208;SDS011;30951;43.994;26.260;2023-08-08T00:36:25;3.20;;;2.22;;
45208;SDS011;30951;43.994;26.260;2023-08-08T00:38:51;3.47;;;2.40;;
45208;SDS011;30951;43.994;26.260;2023-08-08T00:41:16;5.07;;;2.50;;
45208;SDS011;30951;43.994;26.260;2023-08-08T00:43:42;4.32;;;2.80;;
45208;SDS011;30951;43.994;26.260;2023-08-08T00:46:08;4.50;;;2.50;;
45208;SDS011;30951;43.994;26.260;2023-08-08T00:48:34;2.53;;;2.22;;
45208;SDS011;30951;43.994;26.260;2023-08-08T00:50:59;4.05;;;2.60;;
45208;SDS011;30951;43.994;26.260;2023-08-08T00:53:25;2.75;;;2.50;;
45208;SDS011;30951;43.994;26.260;2023-08-08T00:55:53;5.88;;;2.50;;
45208;SDS011;30951;43.994;26.260;2023-08-08T00:58:19;3.13;;;2.67;;
45208;SDS011;30951;43.994;26.260;2023-08-08T01:00:45;2.97;;;2.78;;
45208;SDS011;30951;43.994;26.260;2023-08-08T01:03:10;3.72;;;2.95;;
45208;SDS011;30951;43.994;26.260;2023-08-08T01:05:38;5.32;;;3.13;;
45208;SDS011;30951;43.994;26.260;2023-08-08T01:08:27;3.17;;;2.88;;
45208;SDS011;30951;43.994;26.260;2023-08-08T01:10:58;4.45;;;3.00;;
45208;SDS011;30951;43.994;26.260;2023-08-08T01:13:24;5.45;;;3.47;;
45208;SDS011;30951;43.994;26.260;2023-08-08T01:15:50;10.40;;;4.10;;
45208;SDS011;30951;43.994;26.260;2023-08-08T01:18:18;10.90;;;4.85;;
45208;SDS011;30951;43.994;26.260;2023-08-08T01:20:44;7.18;;;4.47;;
45208;SDS011;30951;43.994;26.260;2023-08-08T01:23:30;9.45;;;4.47;;
45208;SDS011;30951;43.994;26.260;2023-08-08T01:25:58;8.10;;;4.22;;
45208;SDS011;30951;43.994;26.260;2023-08-08T01:28:24;7.55;;;4.20;;
45208;SDS011;30951;43.994;26.260;2023-08-08T01:30:50;9.48;;;4.32;;
45208;SDS011;30951;43.994;26.260;2023-08-08T01:33:16;6.72;;;4.47;;
45208;SDS011;30951;43.994;26.260;2023-08-08T01:35:43;6.82;;;4.18;;
45208;SDS011;30951;43.994;26.260;2023-08-08T01:38:17;9.85;;;3.90;;
45208;SDS011;30951;43.994;26.260;2023-08-08T01:40:46;6.75;;;4.28;;
45208;SDS011;30951;43.994;26.260;2023-08-08T01:43:12;5.90;;;3.95;;
45208;SDS011;30951;43.994;26.260;2023-08-08T01:45:40;10.25;;;4.18;;
45208;SDS011;30951;43.994;26.260;2023-08-08T01:48:09;7.32;;;3.90;;
45208;SDS011;30951;43.994;26.260;2023-08-08T01:50:35;5.38;;;3.70;;
45208;SDS011;30951;43.994;26.260;2023-08-08T01:53:02;6.25;;;3.90;;
45208;SDS011;30951;43.994;26.260;2023-08-08T01:55:28;5.25;;;3.65;;
45208;SDS011;30951;43.994;26.260;2023-08-08T01:57:53;6.38;;;3.88;;
45208;SDS011;30951;43.994;26.260;2023-08-08T02:00:19;5.20;;;3.95;;
45208;SDS011;30951;43.994;26.260;2023-08-08T02:02:45;6.75;;;4.10;;
45208;SDS011;30951;43.994;26.260;2023-08-08T02:05:10;9.60;;;4.68;;
45208;SDS011;30951;43.994;26.260;2023-08-08T02:07:36;5.05;;;4.03;;
45208;SDS011;30951;43.994;26.260;2023-08-08T02:10:02;6.97;;;4.47;;
45208;SDS011;30951;43.994;26.260;2023-08-08T02:12:27;11.85;;;3.90;;
45208;SDS011;30951;43.994;26.260;2023-08-08T02:14:55;8.38;;;3.17;;
45208;SDS011;30951;43.994;26.260;2023-08-08T02:17:24;4.65;;;3.70;;
45208;SDS011;30951;43.994;26.260;2023-08-08T02:19:50;4.55;;;2.65;;
45208;SDS011;30951;43.994;26.260;2023-08-08T02:22:16;5.15;;;2.30;;
45208;SDS011;30951;43.994;26.260;2023-08-08T02:24:42;3.10;;;2.53;;
45208;SDS011;30951;43.994;26.260;2023-08-08T02:27:07;2.80;;;2.25;;
45208;SDS011;30951;43.994;26.260;2023-08-08T02:29:33;2.50;;;2.20;;
45208;SDS011;30951;43.994;26.260;2023-08-08T02:31:58;3.55;;;2.25;;
45208;SDS011;30951;43.994;26.260;2023-08-08T02:34:24;2.67;;;2.47;;
45208;SDS011;30951;43.994;26.260;2023-08-08T02:36:50;4.82;;;1.90;;
45208;SDS011;30951;43.994;26.260;2023-08-08T02:39:15;2.20;;;1.88;;
45208;SDS011;30951;43.994;26.260;2023-08-08T02:41:41;7.15;;;2.35;;
45208;SDS011;30951;43.994;26.260;2023-08-08T02:44:07;2.63;;;2.38;;
45208;SDS011;30951;43.994;26.260;2023-08-08T02:46:33;2.90;;;1.90;;
45208;SDS011;30951;43.994;26.260;2023-08-08T02:48:58;4.32;;;2.38;;
45208;SDS011;30951;43.994;26.260;2023-08-08T02:51:24;2.38;;;2.17;;
45208;SDS011;30951;43.994;26.260;2023-08-08T02:53:49;4.60;;;2.58;;
45208;SDS011;30951;43.994;26.260;2023-08-08T02:56:15;2.70;;;2.50;;
45208;SDS011;30951;43.994;26.260;2023-08-08T02:58:40;4.97;;;2.72;;
45208;SDS011;30951;43.994;26.260;2023-08-08T03:01:06;3.35;;;2.33;;
45208;SDS011;30951;43.994;26.260;2023-08-08T03:03:31;2.45;;;2.25;;
45208;SDS011;30951;43.994;26.260;2023-08-08T03:05:57;2.80;;;2.58;;
45208;SDS011;30951;43.994;26.260;2023-08-08T03:08:22;6.05;;;3.20;;
45208;SDS011;30951;43.994;26.260;2023-08-08T03:10:48;5.32;;;3.17;;
45208;SDS011;30951;43.994;26.260;2023-08-08T03:13:13;6.68;;;3.45;;
45208;SDS011;30951;43.994;26.260;2023-08-08T03:15:39;8.18;;;3.80;;
45208;SDS011;30951;43.994;26.260;2023-08-08T03:18:04;5.72;;;3.58;;
45208;SDS011;30951;43.994;26.260;2023-08-08T03:20:30;7.10;;;4.30;;
45208;SDS011;30951;43.994;26.260;2023-08-08T03:22:55;7.40;;;4.88;;
45208;SDS011;30951;43.994;26.260;2023-08-08T03:25:21;8.95;;;5.18;;
45208;SDS011;30951;43.994;26.260;2023-08-08T03:27:46;7.55;;;4.03;;
45208;SDS011;30951;43.994;26.260;2023-08-08T03:30:12;6.47;;;3.58;;
45208;SDS011;30951;43.994;26.260;2023-08-08T03:32:38;3.72;;;3.40;;
45208;SDS011;30951;43.994;26.260;2023-08-08T03:35:04;3.92;;;3.30;;
45208;SDS011;30951;43.994;26.260;2023-08-08T03:37:30;4.32;;;3.70;;
45208;SDS011;30951;43.994;26.260;2023-08-08T03:39:55;5.90;;;3.20;;
45208;SDS011;30951;43.994;26.260;2023-08-08T03:42:20;5.30;;;3.35;;
45208;SDS011;30951;43.994;26.260;2023-08-08T03:44:46;6.93;;;3.30;;
45208;SDS011;30951;43.994;26.260;2023-08-08T03:47:12;4.90;;;3.05;;
45208;SDS011;30951;43.994;26.260;2023-08-08T03:49:37;3.40;;;3.10;;
45208;SDS011;30951;43.994;26.260;2023-08-08T03:52:03;3.92;;;3.50;;
45208;SDS011;30951;43.994;26.260;2023-08-08T03:54:28;4.40;;;3.28;;
45208;SDS011;30951;43.994;26.260;2023-08-08T03:56:54;3.15;;;2.53;;
45208;SDS011;30951;43.994;26.260;2023-08-08T03:59:20;3.65;;;3.20;;
45208;SDS011;30951;43.994;26.260;2023-08-08T04:01:45;4.45;;;2.97;;
45208;SDS011;30951;43.994;26.260;2023-08-08T04:04:11;7.22;;;3.22;;
45208;SDS011;30951;43.994;26.260;2023-08-08T04:06:36;5.28;;;3.25;;
45208;SDS011;30951;43.994;26.260;2023-08-08T04:09:01;2.67;;;2.47;;
45208;SDS011;30951;43.994;26.260;2023-08-08T04:11:27;3.58;;;3.20;;
45208;SDS011;30951;43.994;26.260;2023-08-08T04:13:52;5.78;;;3.60;;
45208;SDS011;30951;43.994;26.260;2023-08-08T04:16:21;4.63;;;2.95;;
45208;SDS011;30951;43.994;26.260;2023-08-08T04:18:46;4.05;;;3.65;;
45208;SDS011;30951;43.994;26.260;2023-08-08T04:21:12;3.50;;;3.05;;
45208;SDS011;30951;43.994;26.260;2023-08-08T04:23:37;3.00;;;2.72;;
45208;SDS011;30951;43.994;26.260;2023-08-08T04:26:03;6.03;;;3.00;;
45208;SDS011;30951;43.994;26.260;2023-08-08T04:28:28;4.75;;;3.25;;
45208;SDS011;30951;43.994;26.260;2023-08-08T04:30:54;3.22;;;2.92;;
45208;SDS011;30951;43.994;26.260;2023-08-08T04:33:19;5.13;;;3.08;;
45208;SDS011;30951;43.994;26.260;2023-08-08T04:35:45;3.88;;;2.75;;
45208;SDS011;30951;43.994;26.260;2023-08-08T04:38:13;3.88;;;2.80;;
45208;SDS011;30951;43.994;26.260;2023-08-08T04:40:39;3.85;;;3.55;;
45208;SDS011;30951;43.994;26.260;2023-08-08T04:43:04;2.90;;;2.70;;
45208;SDS011;30951;43.994;26.260;2023-08-08T04:45:30;4.43;;;2.67;;
45208;SDS011;30951;43.994;26.260;2023-08-08T04:47:55;3.40;;;2.80;;
45208;SDS011;30951;43.994;26.260;2023-08-08T04:50:21;3.35;;;3.03;;
45208;SDS011;30951;43.994;26.260;2023-08-08T04:52:46;3.20;;;2.97;;
45208;SDS011;30951;43.994;26.260;2023-08-08T04:55:12;2.75;;;2.55;;
45208;SDS011;30951;43.994;26.260;2023-08-08T04:57:37;6.50;;;3.00;;
45208;SDS011;30951;43.994;26.260;2023-08-08T05:00:03;3.15;;;2.80;;
45208;SDS011;30951;43.994;26.260;2023-08-08T05:02:31;4.38;;;2.60;;
45208;SDS011;30951;43.994;26.260;2023-08-08T05:04:56;3.17;;;2.97;;
45208;SDS011;30951;43.994;26.260;2023-08-08T05:07:22;3.35;;;3.05;;
45208;SDS011;30951;43.994;26.260;2023-08-08T05:09:47;3.10;;;2.80;;
45208;SDS011;30951;43.994;26.260;2023-08-08T05:12:13;4.80;;;3.72;;
45208;SDS011;30951;43.994;26.260;2023-08-08T05:14:38;3.90;;;2.90;;
45208;SDS011;30951;43.994;26.260;2023-08-08T05:17:04;4.65;;;3.08;;
45208;SDS011;30951;43.994;26.260;2023-08-08T05:19:30;3.50;;;3.00;;
45208;SDS011;30951;43.994;26.260;2023-08-08T05:21:55;3.67;;;2.97;;
45208;SDS011;30951;43.994;26.260;2023-08-08T05:24:20;4.45;;;3.95;;
45208;SDS011;30951;43.994;26.260;2023-08-08T05:26:46;3.45;;;3.15;;
45208;SDS011;30951;43.994;26.260;2023-08-08T05:29:11;4.40;;;3.00;;
45208;SDS011;30951;43.994;26.260;2023-08-08T05:31:37;5.30;;;3.22;;
45208;SDS011;30951;43.994;26.260;2023-08-08T05:34:02;6.28;;;3.10;;
45208;SDS011;30951;43.994;26.260;2023-08-08T05:36:28;3.58;;;3.28;;
45208;SDS011;30951;43.994;26.260;2023-08-08T05:38:53;4.82;;;3.45;;
45208;SDS011;30951;43.994;26.260;2023-08-08T05:41:19;4.05;;;3.70;;
45208;SDS011;30951;43.994;26.260;2023-08-08T05:43:44;6.55;;;4.60;;
45208;SDS011;30951;43.994;26.260;2023-08-08T05:46:10;3.88;;;3.45;;
45208;SDS011;30951;43.994;26.260;2023-08-08T05:48:35;10.18;;;3.90;;
45208;SDS011;30951;43.994;26.260;2023-08-08T05:51:01;8.02;;;4.22;;
45208;SDS011;30951;43.994;26.260;2023-08-08T05:53:30;4.35;;;3.95;;
45208;SDS011;30951;43.994;26.260;2023-08-08T05:55:56;4.38;;;3.67;;
45208;SDS011;30951;43.994;26.260;2023-08-08T05:58:21;4.53;;;4.07;;
45208;SDS011;30951;43.994;26.260;2023-08-08T06:00:47;4.55;;;3.78;;
45208;SDS011;30951;43.994;26.260;2023-08-08T06:03:12;6.30;;;4.13;;
45208;SDS011;30951;43.994;26.260;2023-08-08T06:05:38;6.57;;;4.20;;
45208;SDS011;30951;43.994;26.260;2023-08-08T06:08:03;6.80;;;3.85;;
45208;SDS011;30951;43.994;26.260;2023-08-08T06:10:31;4.88;;;4.38;;
45208;SDS011;30951;43.994;26.260;2023-08-08T06:12:57;4.50;;;4.15;;
45208;SDS011;30951;43.994;26.260;2023-08-08T06:15:22;4.85;;;4.35;;
45208;SDS011;30951;43.994;26.260;2023-08-08T06:17:48;5.38;;;4.57;;
45208;SDS011;30951;43.994;26.260;2023-08-08T06:20:14;4.72;;;4.28;;
45208;SDS011;30951;43.994;26.260;2023-08-08T06:22:40;7.47;;;4.25;;
45208;SDS011;30951;43.994;26.260;2023-08-08T06:25:06;5.50;;;4.10;;
45208;SDS011;30951;43.994;26.260;2023-08-08T06:27:32;4.72;;;4.30;;
45208;SDS011;30951;43.994;26.260;2023-08-08T06:29:57;4.68;;;4.13;;
45208;SDS011;30951;43.994;26.260;2023-08-08T06:32:24;7.93;;;4.38;;
45208;SDS011;30951;43.994;26.260;2023-08-08T06:34:49;4.38;;;3.72;;
45208;SDS011;30951;43.994;26.260;2023-08-08T06:37:15;4.68;;;4.10;;
45208;SDS011;30951;43.994;26.260;2023-08-08T06:39:40;5.13;;;4.20;;
45208;SDS011;30951;43.994;26.260;2023-08-08T06:42:07;4.72;;;4.28;;
45208;SDS011;30951;43.994;26.260;2023-08-08T06:44:33;4.55;;;4.13;;
45208;SDS011;30951;43.994;26.260;2023-08-08T06:46:58;4.50;;;4.10;;
45208;SDS011;30951;43.994;26.260;2023-08-08T06:49:24;4.47;;;4.13;;
45208;SDS011;30951;43.994;26.260;2023-08-08T06:51:49;3.72;;;3.42;;
45208;SDS011;30951;43.994;26.260;2023-08-08T06:54:15;4.55;;;4.13;;
45208;SDS011;30951;43.994;26.260;2023-08-08T06:56:40;5.43;;;4.93;;
45208;SDS011;30951;43.994;26.260;2023-08-08T06:59:06;4.53;;;4.13;;
45208;SDS011;30951;43.994;26.260;2023-08-08T07:01:32;4.80;;;4.38;;
45208;SDS011;30951;43.994;26.260;2023-08-08T07:03:57;5.38;;;3.90;;
45208;SDS011;30951;43.994;26.260;2023-08-08T07:06:23;8.85;;;4.20;;
45208;SDS011;30951;43.994;26.260;2023-08-08T07:08:48;7.22;;;5.45;;
45208;SDS011;30951;43.994;26.260;2023-08-08T07:11:14;6.50;;;4.20;;
45208;SDS011;30951;43.994;26.260;2023-08-08T07:13:39;4.50;;;4.10;;
45208;SDS011;30951;43.994;26.260;2023-08-08T07:16:04;4.72;;;4.00;;
45208;SDS011;30951;43.994;26.260;2023-08-08T07:18:30;6.63;;;4.65;;
45208;SDS011;30951;43.994;26.260;2023-08-08T07:20:55;4.95;;;4.45;;
45208;SDS011;30951;43.994;26.260;2023-08-08T07:23:21;6.30;;;4.75;;
45208;SDS011;30951;43.994;26.260;2023-08-08T07:25:47;6.38;;;4.70;;
45208;SDS011;30951;43.994;26.260;2023-08-08T07:28:13;4.63;;;4.22;;
45208;SDS011;30951;43.994;26.260;2023-08-08T07:30:40;4.82;;;4.30;;
45208;SDS011;30951;43.994;26.260;2023-08-08T07:33:06;5.63;;;4.65;;
45208;SDS011;30951;43.994;26.260;2023-08-08T07:35:34;4.03;;;3.72;;
45208;SDS011;30951;43.994;26.260;2023-08-08T07:37:59;3.78;;;3.47;;
45208;SDS011;30951;43.994;26.260;2023-08-08T07:40:25;4.53;;;4.10;;
45208;SDS011;30951;43.994;26.260;2023-08-08T07:42:50;6.10;;;3.83;;
45208;SDS011;30951;43.994;26.260;2023-08-08T07:45:16;4.70;;;3.92;;
45208;SDS011;30951;43.994;26.260;2023-08-08T07:47:41;5.32;;;3.60;;
45208;SDS011;30951;43.994;26.260;2023-08-08T07:50:07;4.32;;;3.90;;
45208;SDS011;30951;43.994;26.260;2023-08-08T07:52:36;5.07;;;3.65;;
45208;SDS011;30951;43.994;26.260;2023-08-08T07:55:03;4.22;;;3.83;;
45208;SDS011;30951;43.994;26.260;2023-08-08T07:57:29;5.80;;;3.00;;
45208;SDS011;30951;43.994;26.260;2023-08-08T07:59:55;4.22;;;2.53;;
45208;SDS011;30951;43.994;26.260;2023-08-08T08:02:21;2.35;;;2.15;;
45208;SDS011;30951;43.994;26.260;2023-08-08T08:04:47;3.38;;;2.10;;
45208;SDS011;30951;43.994;26.260;2023-08-08T08:07:12;2.88;;;2.40;;
45208;SDS011;30951;43.994;26.260;2023-08-08T08:09:38;2.13;;;2.03;;
45208;SDS011;30951;43.994;26.260;2023-08-08T08:12:04;2.70;;;2.50;;
45208;SDS011;30951;43.994;26.260;2023-08-08T08:14:30;2.70;;;2.50;;
45208;SDS011;30951;43.994;26.260;2023-08-08T08:16:55;2.85;;;2.65;;
45208;SDS011;30951;43.994;26.260;2023-08-08T08:19:21;2.75;;;2.55;;
45208;SDS011;30951;43.994;26.260;2023-08-08T08:21:46;2.70;;;2.50;;
45208;SDS011;30951;43.994;26.260;2023-08-08T08:24:12;2.60;;;2.40;;
45208;SDS011;30951;43.994;26.260;2023-08-08T08:26:38;2.35;;;2.22;;
45208;SDS011;30951;43.994;26.260;2023-08-08T08:29:03;2.90;;;2.53;;
45208;SDS011;30951;43.994;26.260;2023-08-08T08:31:29;3.47;;;1.98;;
45208;SDS011;30951;43.994;26.260;2023-08-08T08:33:54;3.53;;;2.10;;
45208;SDS011;30951;43.994;26.260;2023-08-08T08:36:20;2.17;;;1.98;;
45208;SDS011;30951;43.994;26.260;2023-08-08T08:38:46;1.58;;;1.48;;
45208;SDS011;30951;43.994;26.260;2023-08-08T08:41:15;3.00;;;1.90;;
45208;SDS011;30951;43.994;26.260;2023-08-08T08:43:42;6.43;;;2.10;;
45208;SDS011;30951;43.994;26.260;2023-08-08T08:46:08;4.43;;;2.13;;
45208;SDS011;30951;43.994;26.260;2023-08-08T08:48:35;2.60;;;2.15;;
45208;SDS011;30951;43.994;26.260;2023-08-08T08:51:00;5.78;;;2.20;;
45208;SDS011;30951;43.994;26.260;2023-08-08T08:53:26;2.55;;;2.35;;
45208;SDS011;30951;43.994;26.260;2023-08-08T08:55:51;2.85;;;2.65;;
45208;SDS011;30951;43.994;26.260;2023-08-08T08:58:18;2.60;;;2.40;;
45208;SDS011;30951;43.994;26.260;2023-08-08T09:00:45;4.43;;;2.45;;
45208;SDS011;30951;43.994;26.260;2023-08-08T09:03:11;4.70;;;2.38;;
45208;SDS011;30951;43.994;26.260;2023-08-08T09:05:38;3.70;;;2.88;;
45208;SDS011;30951;43.994;26.260;2023-08-08T09:08:06;3.70;;;2.67;;
45208;SDS011;30951;43.994;26.260;2023-08-08T09:10:33;3.85;;;2.65;;
45208;SDS011;30951;43.994;26.260;2023-08-08T09:13:00;2.55;;;2.35;;
45208;SDS011;30951;43.994;26.260;2023-08-08T09:15:30;4.25;;;2.55;;
45208;SDS011;30951;43.994;26.260;2023-08-08T09:17:56;4.63;;;2.50;;
45208;SDS011;30951;43.994;26.260;2023-08-08T09:20:22;2.08;;;1.98;;
45208;SDS011;30951;43.994;26.260;2023-08-08T09:22:47;1.80;;;1.65;;
45208;SDS011;30951;43.994;26.260;2023-08-08T09:25:13;2.33;;;1.70;;
45208;SDS011;30951;43.994;26.260;2023-08-08T09:27:40;2.75;;;1.85;;
45208;SDS011;30951;43.994;26.260;2023-08-08T09:30:07;2.17;;;1.70;;
45208;SDS011;30951;43.994;26.260;2023-08-08T09:32:34;1.92;;;1.73;;
45208;SDS011;30951;43.994;26.260;2023-08-08T09:34:59;3.05;;;1.65;;
45208;SDS011;30951;43.994;26.260;2023-08-08T09:37:25;5.20;;;1.60;;
45208;SDS011;30951;43.994;26.260;2023-08-08T09:39:58;1.60;;;1.50;;
45208;SDS011;30951;43.994;26.260;2023-08-08T09:42:28;1.30;;;1.20;;
45208;SDS011;30951;43.994;26.260;2023-08-08T09:44:54;1.67;;;1.48;;
45208;SDS011;30951;43.994;26.260;2023-08-08T09:47:21;5.88;;;1.75;;
45208;SDS011;30951;43.994;26.260;2023-08-08T09:49:47;2.10;;;1.70;;
45208;SDS011;30951;43.994;26.260;2023-08-08T09:52:12;1.90;;;1.70;;
45208;SDS011;30951;43.994;26.260;2023-08-08T09:54:38;1.60;;;1.50;;
45208;SDS011;30951;43.994;26.260;2023-08-08T09:57:05;1.13;;;1.02;;
45208;SDS011;30951;43.994;26.260;2023-08-08T09:59:32;2.30;;;1.20;;
45208;SDS011;30951;43.994;26.260;2023-08-08T10:01:57;1.42;;;1.17;;
45208;SDS011;30951;43.994;26.260;2023-08-08T10:04:23;3.25;;;1.30;;
45208;SDS011;30951;43.994;26.260;2023-08-08T10:06:49;1.55;;;1.15;;
45208;SDS011;30951;43.994;26.260;2023-08-08T10:09:14;2.30;;;1.40;;
45208;SDS011;30951;43.994;26.260;2023-08-08T10:11:41;1.75;;;1.25;;
45208;SDS011;30951;43.994;26.260;2023-08-08T10:14:08;2.45;;;1.20;;
45208;SDS011;30951;43.994;26.260;2023-08-08T10:16:36;2.72;;;0.88;;
45208;SDS011;30951;43.994;26.260;2023-08-08T10:19:03;4.43;;;1.10;;
45208;SDS011;30951;43.994;26.260;2023-08-08T10:21:34;1.92;;;1.15;;
45208;SDS011;30951;43.994;26.260;2023-08-08T10:24:09;1.23;;;1.13;;
45208;SDS011;30951;43.994;26.260;2023-08-08T10:26:51;7.32;;;1.02;;
45208;SDS011;30951;43.994;26.260;2023-08-08T10:29:17;1.10;;;1.00;;
45208;SDS011;30951;43.994;26.260;2023-08-08T10:31:50;1.20;;;1.00;;
45208;SDS011;30951;43.994;26.260;2023-08-08T10:34:20;0.82;;;0.82;;
45208;SDS011;30951;43.994;26.260;2023-08-08T10:36:50;1.95;;;0.77;;
45208;SDS011;30951;43.994;26.260;2023-08-08T10:39:17;4.72;;;0.80;;
45208;SDS011;30951;43.994;26.260;2023-08-08T10:41:48;2.47;;;0.70;;
45208;SDS011;30951;43.994;26.260;2023-08-08T10:44:20;0.93;;;0.80;;
45208;SDS011;30951;43.994;26.260;2023-08-08T10:46:48;2.25;;;0.77;;
45208;SDS011;30951;43.994;26.260;2023-08-08T10:49:13;1.65;;;0.60;;
45208;SDS011;30951;43.994;26.260;2023-08-08T10:51:43;0.70;;;0.60;;
45208;SDS011;30951;43.994;26.260;2023-08-08T10:54:16;0.68;;;0.50;;
45208;SDS011;30951;43.994;26.260;2023-08-08T10:56:51;1.23;;;0.30;;
45208;SDS011;30951;43.994;26.260;2023-08-08T10:59:20;1.58;;;0.70;;
45208;SDS011;30951;43.994;26.260;2023-08-08T11:01:48;2.67;;;0.75;;
45208;SDS011;30951;43.994;26.260;2023-08-08T11:04:15;0.75;;;0.60;;
45208;SDS011;30951;43.994;26.260;2023-08-08T11:06:41;0.95;;;0.60;;
45208;SDS011;30951;43.994;26.260;2023-08-08T11:09:07;0.52;;;0.40;;
45208;SDS011;30951;43.994;26.260;2023-08-08T11:11:36;4.50;;;0.75;;
45208;SDS011;30951;43.994;26.260;2023-08-08T11:14:10;0.93;;;0.60;;
45208;SDS011;30951;43.994;26.260;2023-08-08T11:16:43;0.65;;;0.50;;
45208;SDS011;30951;43.994;26.260;2023-08-08T11:19:09;1.50;;;0.70;;
45208;SDS011;30951;43.994;26.260;2023-08-08T11:21:36;1.65;;;0.55;;
45208;SDS011;30951;43.994;26.260;2023-08-08T11:24:03;0.93;;;0.60;;
45208;SDS011;30951;43.994;26.260;2023-08-08T11:26:29;0.60;;;0.60;;
45208;SDS011;30951;43.994;26.260;2023-08-08T11:28:57;0.73;;;0.60;;
45208;SDS011;30951;43.994;26.260;2023-08-08T11:31:24;0.65;;;0.40;;
45208;SDS011;30951;43.994;26.260;2023-08-08T11:33:50;2.05;;;0.50;;
45208;SDS011;30951;43.994;26.260;2023-08-08T11:36:16;0.52;;;0.52;;
45208;SDS011;30951;43.994;26.260;2023-08-08T11:38:42;0.35;;;0.35;;
45208;SDS011;30951;43.994;26.260;2023-08-08T11:41:12;0.75;;;0.50;;
45208;SDS011;30951;43.994;26.260;2023-08-08T11:43:39;0.93;;;0.40;;
45208;SDS011;30951;43.994;26.260;2023-08-08T11:46:08;1.55;;;0.65;;
45208;SDS011;30951;43.994;26.260;2023-08-08T11:48:35;1.65;;;0.65;;
45208;SDS011;30951;43.994;26.260;2023-08-08T11:51:03;2.35;;;1.90;;
45208;SDS011;30951;43.994;26.260;2023-08-08T11:53:29;4.75;;;2.05;;
45208;SDS011;30951;43.994;26.260;2023-08-08T11:55:55;2.92;;;2.55;;
45208;SDS011;30951;43.994;26.260;2023-08-08T11:58:26;8.82;;;2.88;;
45208;SDS011;30951;43.994;26.260;2023-08-08T12:00:51;4.15;;;3.05;;
45208;SDS011;30951;43.994;26.260;2023-08-08T12:03:17;4.35;;;2.70;;
45208;SDS011;30951;43.994;26.260;2023-08-08T12:05:47;4.68;;;3.42;;
45208;SDS011;30951;43.994;26.260;2023-08-08T12:08:13;4.22;;;3.83;;
45208;SDS011;30951;43.994;26.260;2023-08-08T12:10:39;3.90;;;3.35;;
45208;SDS011;30951;43.994;26.260;2023-08-08T12:13:04;3.97;;;2.90;;
45208;SDS011;30951;43.994;26.260;2023-08-08T12:15:32;5.00;;;3.60;;
45208;SDS011;30951;43.994;26.260;2023-08-08T12:18:00;6.50;;;2.70;;
45208;SDS011;30951;43.994;26.260;2023-08-08T12:20:27;2.58;;;2.10;;
45208;SDS011;30951;43.994;26.260;2023-08-08T12:22:54;5.70;;;1.90;;
45208;SDS011;30951;43.994;26.260;2023-08-08T12:25:20;2.10;;;1.90;;
45208;SDS011;30951;43.994;26.260;2023-08-08T12:27:46;1.38;;;1.27;;
45208;SDS011;30951;43.994;26.260;2023-08-08T12:30:11;1.52;;;1.10;;
45208;SDS011;30951;43.994;26.260;2023-08-08T12:32:37;3.53;;;1.20;;
45208;SDS011;30951;43.994;26.260;2023-08-08T12:35:03;1.25;;;1.15;;
45208;SDS011;30951;43.994;26.260;2023-08-08T12:37:28;3.10;;;1.35;;
45208;SDS011;30951;43.994;26.260;2023-08-08T12:39:54;2.28;;;1.52;;
45208;SDS011;30951;43.994;26.260;2023-08-08T13:02:50;1.20;;;1.10;;
45208;SDS011;30951;43.994;26.260;2023-08-08T13:05:16;1.58;;;1.40;;
45208;SDS011;30951;43.994;26.260;2023-08-08T13:07:41;2.83;;;1.50;;
45208;SDS011;30951;43.994;26.260;2023-08-08T13:10:07;4.07;;;1.63;;
45208;SDS011;30951;43.994;26.260;2023-08-08T13:12:32;3.63;;;1.42;;
45208;SDS011;30951;43.994;26.260;2023-08-08T13:14:58;4.05;;;1.10;;
45208;SDS011;30951;43.994;26.260;2023-08-08T13:17:23;1.48;;;1.00;;
45208;SDS011;30951;43.994;26.260;2023-08-08T13:19:49;1.58;;;1.25;;
45208;SDS011;30951;43.994;26.260;2023-08-08T13:22:15;1.05;;;0.80;;
45208;SDS011;30951;43.994;26.260;2023-08-08T13:24:40;1.35;;;0.80;;
45208;SDS011;30951;43.994;26.260;2023-08-08T13:27:06;2.20;;;0.88;;
45208;SDS011;30951;43.994;26.260;2023-08-08T13:29:31;0.70;;;0.65;;
45208;SDS011;30951;43.994;26.260;2023-08-08T13:31:57;2.72;;;0.88;;
45208;SDS011;30951;43.994;26.260;2023-08-08T13:34:23;0.90;;;0.90;;
45208;SDS011;30951;43.994;26.260;2023-08-08T13:36:48;0.75;;;0.70;;
45208;SDS011;30951;43.994;26.260;2023-08-08T13:39:14;0.95;;;0.90;;
45208;SDS011;30951;43.994;26.260;2023-08-08T13:41:39;0.93;;;0.75;;
45208;SDS011;30951;43.994;26.260;2023-08-08T13:44:05;0.75;;;0.75;;
45208;SDS011;30951;43.994;26.260;2023-08-08T13:46:31;0.70;;;0.70;;
45208;SDS011;30951;43.994;26.260;2023-08-08T13:48:56;0.50;;;0.50;;
45208;SDS011;30951;43.994;26.260;2023-08-08T13:51:22;1.85;;;0.50;;
45208;SDS011;30951;43.994;26.260;2023-08-08T13:53:47;1.02;;;0.73;;
45208;SDS011;30951;43.994;26.260;2023-08-08T13:56:16;1.33;;;0.80;;
45208;SDS011;30951;43.994;26.260;2023-08-08T13:58:42;2.20;;;0.88;;
45208;SDS011;30951;43.994;26.260;2023-08-08T14:01:07;0.93;;;0.77;;
45208;SDS011;30951;43.994;26.260;2023-08-08T14:03:33;2.00;;;1.48;;
45208;SDS011;30951;43.994;26.260;2023-08-08T14:05:59;2.90;;;0.73;;
45208;SDS011;30951;43.994;26.260;2023-08-08T14:08:25;0.88;;;0.60;;
45208;SDS011;30951;43.994;26.260;2023-08-08T14:10:50;1.00;;;0.65;;
45208;SDS011;30951;43.994;26.260;2023-08-08T14:13:16;1.85;;;0.52;;
45208;SDS011;30951;43.994;26.260;2023-08-08T14:15:44;0.50;;;0.50;;
45208;SDS011;30951;43.994;26.260;2023-08-08T14:18:09;0.85;;;0.55;;
45208;SDS011;30951;43.994;26.260;2023-08-08T14:20:35;0.57;;;0.57;;
45208;SDS011;30951;43.994;26.260;2023-08-08T14:23:01;0.75;;;0.40;;
45208;SDS011;30951;43.994;26.260;2023-08-08T14:25:27;1.50;;;0.55;;
45208;SDS011;30951;43.994;26.260;2023-08-08T14:27:54;0.73;;;0.50;;
45208;SDS011;30951;43.994;26.260;2023-08-08T14:30:21;0.85;;;0.50;;
45208;SDS011;30951;43.994;26.260;2023-08-08T14:32:47;1.20;;;0.68;;
45208;SDS011;30951;43.994;26.260;2023-08-08T14:35:13;0.40;;;0.40;;
45208;SDS011;30951;43.994;26.260;2023-08-08T14:37:39;0.50;;;0.50;;
45208;SDS011;30951;43.994;26.260;2023-08-08T14:40:04;0.32;;;0.32;;
45208;SDS011;30951;43.994;26.260;2023-08-08T14:42:30;0.77;;;0.65;;
45208;SDS011;30951;43.994;26.260;2023-08-08T14:44:56;0.80;;;0.70;;
45208;SDS011;30951;43.994;26.260;2023-08-08T14:47:22;0.60;;;0.60;;